KDTOKLNC

Guest
Details From KDTO - DENTON MUNI
To KLNC - LANCASTER
Flight Number -
Tags generated
Created
Modified
Stats Distance 45 nm / 83 km
Max Altitude 4,500 ft / 1,372 m
Waypoints 3
Social Downloads 0
Likes 0
Share VATSIM

Download

Looking for another format? Having issues loading an existing format? Contact us
Advertisement - Login to hide

Notes

Basic altitude profile: - Ascent Rate: 400ft/min - Ascent Speed: 75kts - Cruise Altitude: 35000ft - Cruise Speed: 90kts - Descent Rate: 500ft/min - Descent Speed: 60kts Options: - Use NATs: yes - Use PACOTS: yes - Use low airways: no - Use high airways: yes

Route

KDTO CVE KLNC

ID Type Via Altitude Latitude Longitude Leg Dist Tot Dist Heading (true) Name
O KDTO APT - 0 ft / 0 m 33.20072˚ -97.19798˚ - 0 nm - DENTON MUNI
CVE VOR - 4,500 ft / 1,372 m 32.89031˚ -96.90397˚ 23 nm 23 nm 141° / 142° COWBOY VOR-DME
O KLNC APT - 0 ft / 0 m 32.57760˚ -96.71751˚ 21 nm 44 nm 153° / 153° LANCASTER

Altitude Profile

Advertisement - Login to hide

KDTO

Details ICAO KDTO
Name DENTON MUNI
Region United States
Timezone America/Chicago (UTC-6.0)
Stats Elevation 642 ft / 196 m (AMSL)
Location 33.200722° -97.197976°
Runways 1
Magnetic Variation 3.529° E

METAR

KDTO 181053Z AUTO 00000KT 5SM BR OVC004 08/08 A3016 RMK AO2 SLP211 T00830083

Decode

TAF

Not found

Departure Runways

ID Width Length Bearing (true) Bearing (mag) Surface Threshold Offset Overrun Length
17 150 ft / 46 m 6,016 ft / 1,834 m 181.06° 177.53° Asphalt 0 ft / 0 m 0 ft / 0 m
35 150 ft / 46 m 6,016 ft / 1,834 m 1.06° 357.53° Asphalt 0 ft / 0 m 0 ft / 0 m

KLNC

Details ICAO KLNC
Name LANCASTER
Region United States
Timezone America/Chicago (UTC-6.0)
Stats Elevation 500 ft / 152 m (AMSL)
Location 32.577603° -96.717508°
Runways 1
Magnetic Variation 3.242° E

METAR

KLNC 181115Z AUTO 00000KT 3/4SM BR OVC001 08/08 A3017 RMK AO2 T00810077

Decode

TAF

Not found

Destination Runways

ID Width Length Bearing (true) Bearing (mag) Surface Threshold Offset Overrun Length
13 100 ft / 30 m 6,506 ft / 1,983 m 140.45° 137.21° Asphalt 0 ft / 0 m 0 ft / 0 m
31 100 ft / 30 m 6,506 ft / 1,983 m 320.45° 317.21° Asphalt 0 ft / 0 m 0 ft / 0 m